sensor_id;sensor_type;location;lat;lon;timestamp;temperature;humidity
18577;DHT22;9418;52.694;13.294;2023-07-30T00:01:22;16.50;66.30
18577;DHT22;9418;52.694;13.294;2023-07-30T00:03:49;16.50;66.40
18577;DHT22;9418;52.694;13.294;2023-07-30T00:06:15;16.40;66.60
18577;DHT22;9418;52.694;13.294;2023-07-30T00:08:43;16.40;66.90
18577;DHT22;9418;52.694;13.294;2023-07-30T00:11:10;16.40;67.00
18577;DHT22;9418;52.694;13.294;2023-07-30T00:13:36;16.40;67.20
18577;DHT22;9418;52.694;13.294;2023-07-30T00:16:03;16.40;67.10
18577;DHT22;9418;52.694;13.294;2023-07-30T00:18:29;16.40;67.20
18577;DHT22;9418;52.694;13.294;2023-07-30T00:20:56;16.40;67.00
18577;DHT22;9418;52.694;13.294;2023-07-30T00:23:22;16.40;67.10
18577;DHT22;9418;52.694;13.294;2023-07-30T00:25:50;16.40;67.30
18577;DHT22;9418;52.694;13.294;2023-07-30T00:28:17;16.40;67.50
18577;DHT22;9418;52.694;13.294;2023-07-30T00:30:43;16.30;68.00
18577;DHT22;9418;52.694;13.294;2023-07-30T00:33:10;16.30;68.40
18577;DHT22;9418;52.694;13.294;2023-07-30T00:35:37;16.30;68.60
18577;DHT22;9418;52.694;13.294;2023-07-30T00:38:03;16.30;68.50
18577;DHT22;9418;52.694;13.294;2023-07-30T00:40:30;16.30;68.60
18577;DHT22;9418;52.694;13.294;2023-07-30T00:42:58;16.30;68.90
18577;DHT22;9418;52.694;13.294;2023-07-30T00:45:25;16.20;69.40
18577;DHT22;9418;52.694;13.294;2023-07-30T00:47:51;16.20;69.60
18577;DHT22;9418;52.694;13.294;2023-07-30T00:50:18;16.20;70.10
18577;DHT22;9418;52.694;13.294;2023-07-30T00:52:44;16.10;70.60
18577;DHT22;9418;52.694;13.294;2023-07-30T00:55:11;16.10;71.00
18577;DHT22;9418;52.694;13.294;2023-07-30T00:57:39;16.10;71.70
18577;DHT22;9418;52.694;13.294;2023-07-30T01:00:08;16.00;71.60
18577;DHT22;9418;52.694;13.294;2023-07-30T01:02:35;16.10;71.20
18577;DHT22;9418;52.694;13.294;2023-07-30T01:05:02;16.00;72.00
18577;DHT22;9418;52.694;13.294;2023-07-30T01:07:29;15.90;72.70
18577;DHT22;9418;52.694;13.294;2023-07-30T01:09:56;15.80;73.60
18577;DHT22;9418;52.694;13.294;2023-07-30T01:12:23;15.80;74.00
18577;DHT22;9418;52.694;13.294;2023-07-30T01:14:50;15.80;73.90
18577;DHT22;9418;52.694;13.294;2023-07-30T01:17:19;15.70;74.30
18577;DHT22;9418;52.694;13.294;2023-07-30T01:19:45;15.60;75.20
18577;DHT22;9418;52.694;13.294;2023-07-30T01:22:13;15.60;75.70
18577;DHT22;9418;52.694;13.294;2023-07-30T01:24:40;15.50;76.20
18577;DHT22;9418;52.694;13.294;2023-07-30T01:27:07;15.50;74.10
18577;DHT22;9418;52.694;13.294;2023-07-30T01:29:41;15.50;75.60
18577;DHT22;9418;52.694;13.294;2023-07-30T01:32:11;15.50;75.90
18577;DHT22;9418;52.694;13.294;2023-07-30T01:34:40;15.40;76.40
18577;DHT22;9418;52.694;13.294;2023-07-30T01:37:12;15.40;76.70
18577;DHT22;9418;52.694;13.294;2023-07-30T01:39:40;15.40;77.20
18577;DHT22;9418;52.694;13.294;2023-07-30T01:42:11;15.40;77.20
18577;DHT22;9418;52.694;13.294;2023-07-30T01:44:38;15.30;77.10
18577;DHT22;9418;52.694;13.294;2023-07-30T01:47:04;15.30;77.40
18577;DHT22;9418;52.694;13.294;2023-07-30T01:49:31;15.30;77.40
18577;DHT22;9418;52.694;13.294;2023-07-30T01:51:57;15.30;77.60
18577;DHT22;9418;52.694;13.294;2023-07-30T01:54:24;15.20;77.70
18577;DHT22;9418;52.694;13.294;2023-07-30T01:56:53;15.20;78.10
18577;DHT22;9418;52.694;13.294;2023-07-30T01:59:20;15.10;78.10
18577;DHT22;9418;52.694;13.294;2023-07-30T02:01:46;15.10;78.80
18577;DHT22;9418;52.694;13.294;2023-07-30T02:04:13;15.10;78.70
18577;DHT22;9418;52.694;13.294;2023-07-30T02:06:39;15.00;78.90
18577;DHT22;9418;52.694;13.294;2023-07-30T02:09:06;15.00;79.10
18577;DHT22;9418;52.694;13.294;2023-07-30T02:11:32;15.00;79.40
18577;DHT22;9418;52.694;13.294;2023-07-30T02:14:00;15.00;79.60
18577;DHT22;9418;52.694;13.294;2023-07-30T02:16:27;14.90;79.70
18577;DHT22;9418;52.694;13.294;2023-07-30T02:18:53;14.90;79.90
18577;DHT22;9418;52.694;13.294;2023-07-30T02:21:20;14.90;80.10
18577;DHT22;9418;52.694;13.294;2023-07-30T02:23:46;14.90;80.10
18577;DHT22;9418;52.694;13.294;2023-07-30T02:26:13;14.80;80.30
18577;DHT22;9418;52.694;13.294;2023-07-30T02:28:39;14.80;80.40
18577;DHT22;9418;52.694;13.294;2023-07-30T02:31:07;14.80;80.60
18577;DHT22;9418;52.694;13.294;2023-07-30T02:33:33;14.80;80.70
18577;DHT22;9418;52.694;13.294;2023-07-30T02:36:00;14.80;80.90
18577;DHT22;9418;52.694;13.294;2023-07-30T02:38:26;14.80;80.90
18577;DHT22;9418;52.694;13.294;2023-07-30T02:40:53;14.80;81.30
18577;DHT22;9418;52.694;13.294;2023-07-30T02:43:19;14.80;81.30
18577;DHT22;9418;52.694;13.294;2023-07-30T02:45:47;14.80;81.50
18577;DHT22;9418;52.694;13.294;2023-07-30T02:48:15;14.80;81.90
18577;DHT22;9418;52.694;13.294;2023-07-30T02:50:42;14.80;81.70
18577;DHT22;9418;52.694;13.294;2023-07-30T02:53:08;14.80;81.70
18577;DHT22;9418;52.694;13.294;2023-07-30T02:55:35;14.90;81.70
18577;DHT22;9418;52.694;13.294;2023-07-30T02:58:01;14.90;81.60
18577;DHT22;9418;52.694;13.294;2023-07-30T03:00:28;14.90;81.10
18577;DHT22;9418;52.694;13.294;2023-07-30T03:02:56;15.00;82.70
18577;DHT22;9418;52.694;13.294;2023-07-30T03:05:24;14.90;81.60
18577;DHT22;9418;52.694;13.294;2023-07-30T03:07:50;14.90;81.30
18577;DHT22;9418;52.694;13.294;2023-07-30T03:10:17;14.90;81.10
18577;DHT22;9418;52.694;13.294;2023-07-30T03:12:43;14.90;81.20
18577;DHT22;9418;52.694;13.294;2023-07-30T03:15:10;14.80;81.20
18577;DHT22;9418;52.694;13.294;2023-07-30T03:17:36;14.80;81.10
18577;DHT22;9418;52.694;13.294;2023-07-30T03:20:04;14.80;81.30
18577;DHT22;9418;52.694;13.294;2023-07-30T03:22:32;14.70;82.10
18577;DHT22;9418;52.694;13.294;2023-07-30T03:24:58;14.70;81.80
18577;DHT22;9418;52.694;13.294;2023-07-30T03:27:25;14.70;81.90
18577;DHT22;9418;52.694;13.294;2023-07-30T03:29:51;14.70;81.90
18577;DHT22;9418;52.694;13.294;2023-07-30T03:32:18;14.70;82.30
18577;DHT22;9418;52.694;13.294;2023-07-30T03:34:44;14.70;82.20
18577;DHT22;9418;52.694;13.294;2023-07-30T03:37:11;14.70;82.20
18577;DHT22;9418;52.694;13.294;2023-07-30T03:39:39;14.70;82.80
18577;DHT22;9418;52.694;13.294;2023-07-30T03:42:05;14.60;82.60
18577;DHT22;9418;52.694;13.294;2023-07-30T03:44:32;14.60;82.50
18577;DHT22;9418;52.694;13.294;2023-07-30T03:46:58;14.70;82.40
18577;DHT22;9418;52.694;13.294;2023-07-30T03:49:25;14.70;82.50
18577;DHT22;9418;52.694;13.294;2023-07-30T03:51:52;14.60;82.50
18577;DHT22;9418;52.694;13.294;2023-07-30T03:54:18;14.70;83.90
18577;DHT22;9418;52.694;13.294;2023-07-30T03:56:46;14.80;84.50
18577;DHT22;9418;52.694;13.294;2023-07-30T03:59:13;14.80;83.40
18577;DHT22;9418;52.694;13.294;2023-07-30T04:01:39;14.80;83.00
18577;DHT22;9418;52.694;13.294;2023-07-30T04:04:06;14.70;83.00
18577;DHT22;9418;52.694;13.294;2023-07-30T04:06:32;14.70;82.70
18577;DHT22;9418;52.694;13.294;2023-07-30T04:08:59;14.80;82.80
18577;DHT22;9418;52.694;13.294;2023-07-30T04:11:25;14.80;83.30
18577;DHT22;9418;52.694;13.294;2023-07-30T04:13:53;14.90;83.80
18577;DHT22;9418;52.694;13.294;2023-07-30T04:16:20;14.90;83.20
18577;DHT22;9418;52.694;13.294;2023-07-30T04:18:46;14.90;82.70
18577;DHT22;9418;52.694;13.294;2023-07-30T04:21:13;15.00;82.70
18577;DHT22;9418;52.694;13.294;2023-07-30T04:23:40;15.00;82.40
18577;DHT22;9418;52.694;13.294;2023-07-30T04:26:07;15.10;81.90
18577;DHT22;9418;52.694;13.294;2023-07-30T04:28:34;15.10;81.70
18577;DHT22;9418;52.694;13.294;2023-07-30T04:31:01;15.20;81.40
18577;DHT22;9418;52.694;13.294;2023-07-30T04:33:28;15.30;81.20
18577;DHT22;9418;52.694;13.294;2023-07-30T04:35:54;15.30;80.90
18577;DHT22;9418;52.694;13.294;2023-07-30T04:38:21;15.40;80.50
18577;DHT22;9418;52.694;13.294;2023-07-30T04:40:48;15.50;80.30
18577;DHT22;9418;52.694;13.294;2023-07-30T04:43:15;15.50;80.10
18577;DHT22;9418;52.694;13.294;2023-07-30T04:45:42;15.50;79.80
18577;DHT22;9418;52.694;13.294;2023-07-30T04:48:11;15.50;79.60
18577;DHT22;9418;52.694;13.294;2023-07-30T04:50:38;15.60;79.40
18577;DHT22;9418;52.694;13.294;2023-07-30T04:53:07;15.70;78.00
18577;DHT22;9418;52.694;13.294;2023-07-30T04:55:33;15.70;78.40
18577;DHT22;9418;52.694;13.294;2023-07-30T04:58:00;15.80;78.00
18577;DHT22;9418;52.694;13.294;2023-07-30T05:00:27;15.90;77.50
18577;DHT22;9418;52.694;13.294;2023-07-30T05:02:54;15.90;77.10
18577;DHT22;9418;52.694;13.294;2023-07-30T05:05:22;16.00;76.40
18577;DHT22;9418;52.694;13.294;2023-07-30T05:07:48;16.10;75.60
18577;DHT22;9418;52.694;13.294;2023-07-30T05:10:15;16.10;73.60
18577;DHT22;9418;52.694;13.294;2023-07-30T05:12:41;16.30;72.90
18577;DHT22;9418;52.694;13.294;2023-07-30T05:15:08;16.40;71.30
18577;DHT22;9418;52.694;13.294;2023-07-30T05:17:35;16.40;69.20
18577;DHT22;9418;52.694;13.294;2023-07-30T05:20:02;16.50;68.10
18577;DHT22;9418;52.694;13.294;2023-07-30T05:22:29;16.60;67.40
18577;DHT22;9418;52.694;13.294;2023-07-30T05:24:56;16.60;67.50
18577;DHT22;9418;52.694;13.294;2023-07-30T05:27:22;16.70;68.00
18577;DHT22;9418;52.694;13.294;2023-07-30T05:29:49;16.70;68.60
18577;DHT22;9418;52.694;13.294;2023-07-30T05:32:15;16.80;70.10
18577;DHT22;9418;52.694;13.294;2023-07-30T05:34:42;16.80;71.00
18577;DHT22;9418;52.694;13.294;2023-07-30T05:37:09;16.80;71.80
18577;DHT22;9418;52.694;13.294;2023-07-30T05:39:36;16.90;72.60
18577;DHT22;9418;52.694;13.294;2023-07-30T05:42:03;16.90;75.10
18577;DHT22;9418;52.694;13.294;2023-07-30T05:44:30;17.00;75.90
18577;DHT22;9418;52.694;13.294;2023-07-30T05:46:56;17.00;76.90
18577;DHT22;9418;52.694;13.294;2023-07-30T05:49:24;17.00;83.90
18577;DHT22;9418;52.694;13.294;2023-07-30T05:51:50;17.00;85.60
18577;DHT22;9418;52.694;13.294;2023-07-30T05:54:17;17.10;86.10
18577;DHT22;9418;52.694;13.294;2023-07-30T05:56:45;17.10;89.80
18577;DHT22;9418;52.694;13.294;2023-07-30T05:59:11;17.20;90.20
18577;DHT22;9418;52.694;13.294;2023-07-30T06:01:38;17.20;93.00
18577;DHT22;9418;52.694;13.294;2023-07-30T06:04:04;17.30;97.10
18577;DHT22;9418;52.694;13.294;2023-07-30T06:06:31;17.30;99.90
18577;DHT22;9418;52.694;13.294;2023-07-30T06:08:57;17.40;99.90
18577;DHT22;9418;52.694;13.294;2023-07-30T06:11:24;17.40;99.90
18577;DHT22;9418;52.694;13.294;2023-07-30T06:13:53;17.40;99.90
18577;DHT22;9418;52.694;13.294;2023-07-30T06:16:19;17.50;99.90
18577;DHT22;9418;52.694;13.294;2023-07-30T06:18:46;17.50;99.90
18577;DHT22;9418;52.694;13.294;2023-07-30T06:21:12;17.50;99.90
18577;DHT22;9418;52.694;13.294;2023-07-30T06:23:39;17.50;99.90
18577;DHT22;9418;52.694;13.294;2023-07-30T06:26:06;17.60;99.90
18577;DHT22;9418;52.694;13.294;2023-07-30T06:28:32;17.60;99.90
18577;DHT22;9418;52.694;13.294;2023-07-30T06:31:01;17.70;99.90
18577;DHT22;9418;52.694;13.294;2023-07-30T06:33:27;17.80;99.90
18577;DHT22;9418;52.694;13.294;2023-07-30T06:35:54;17.90;99.90
18577;DHT22;9418;52.694;13.294;2023-07-30T06:38:21;17.90;99.90
18577;DHT22;9418;52.694;13.294;2023-07-30T06:40:48;17.90;99.90
18577;DHT22;9418;52.694;13.294;2023-07-30T06:43:14;17.90;99.90
18577;DHT22;9418;52.694;13.294;2023-07-30T06:45:41;18.00;99.90
18577;DHT22;9418;52.694;13.294;2023-07-30T06:48:09;18.00;99.90
18577;DHT22;9418;52.694;13.294;2023-07-30T06:50:35;18.00;99.90
18577;DHT22;9418;52.694;13.294;2023-07-30T06:53:02;18.10;99.90
18577;DHT22;9418;52.694;13.294;2023-07-30T06:55:28;18.20;99.90
18577;DHT22;9418;52.694;13.294;2023-07-30T06:57:55;18.30;99.90
18577;DHT22;9418;52.694;13.294;2023-07-30T07:00:21;18.40;99.90
18577;DHT22;9418;52.694;13.294;2023-07-30T07:02:48;18.60;99.90
18577;DHT22;9418;52.694;13.294;2023-07-30T07:05:16;18.70;99.90
18577;DHT22;9418;52.694;13.294;2023-07-30T07:07:42;18.70;99.90
18577;DHT22;9418;52.694;13.294;2023-07-30T07:10:09;18.90;99.90
18577;DHT22;9418;52.694;13.294;2023-07-30T07:12:36;19.00;99.90
18577;DHT22;9418;52.694;13.294;2023-07-30T07:15:04;19.00;99.90
18577;DHT22;9418;52.694;13.294;2023-07-30T07:17:31;19.00;99.90
18577;DHT22;9418;52.694;13.294;2023-07-30T07:19:58;19.20;99.90
18577;DHT22;9418;52.694;13.294;2023-07-30T07:22:26;19.10;99.90
18577;DHT22;9418;52.694;13.294;2023-07-30T07:24:53;19.10;99.90
18577;DHT22;9418;52.694;13.294;2023-07-30T07:27:19;19.10;99.90
18577;DHT22;9418;52.694;13.294;2023-07-30T07:29:46;19.20;99.90
18577;DHT22;9418;52.694;13.294;2023-07-30T07:32:13;19.20;99.90
18577;DHT22;9418;52.694;13.294;2023-07-30T07:34:39;19.30;99.90
18577;DHT22;9418;52.694;13.294;2023-07-30T07:37:06;19.30;99.90
18577;DHT22;9418;52.694;13.294;2023-07-30T07:39:34;19.50;99.90
18577;DHT22;9418;52.694;13.294;2023-07-30T07:42:00;19.50;99.90
18577;DHT22;9418;52.694;13.294;2023-07-30T07:44:27;19.70;99.90
18577;DHT22;9418;52.694;13.294;2023-07-30T07:46:53;19.70;99.90
18577;DHT22;9418;52.694;13.294;2023-07-30T07:49:20;19.70;99.90
18577;DHT22;9418;52.694;13.294;2023-07-30T07:51:46;19.70;30.20
18577;DHT22;9418;52.694;13.294;2023-07-30T07:54:13;19.60;84.10
18577;DHT22;9418;52.694;13.294;2023-07-30T07:56:41;19.60;99.90
18577;DHT22;9418;52.694;13.294;2023-07-30T07:59:07;19.70;20.70
18577;DHT22;9418;52.694;13.294;2023-07-30T08:01:34;19.70;21.50
18577;DHT22;9418;52.694;13.294;2023-07-30T08:04:01;19.80;89.10
18577;DHT22;9418;52.694;13.294;2023-07-30T08:06:28;19.70;26.50
18577;DHT22;9418;52.694;13.294;2023-07-30T08:08:55;19.80;31.10
18577;DHT22;9418;52.694;13.294;2023-07-30T08:11:22;19.80;35.90
18577;DHT22;9418;52.694;13.294;2023-07-30T08:13:49;19.80;49.80
18577;DHT22;9418;52.694;13.294;2023-07-30T08:16:16;19.80;35.30
18577;DHT22;9418;52.694;13.294;2023-07-30T08:18:42;20.00;26.60
18577;DHT22;9418;52.694;13.294;2023-07-30T08:21:09;20.00;51.40
18577;DHT22;9418;52.694;13.294;2023-07-30T08:23:36;20.30;38.60
18577;DHT22;9418;52.694;13.294;2023-07-30T08:26:03;20.50;53.80
18577;DHT22;9418;52.694;13.294;2023-07-30T08:28:30;20.60;74.90
18577;DHT22;9418;52.694;13.294;2023-07-30T08:31:01;20.50;94.30
18577;DHT22;9418;52.694;13.294;2023-07-30T08:33:28;20.40;91.60
18577;DHT22;9418;52.694;13.294;2023-07-30T08:35:55;20.60;96.90
18577;DHT22;9418;52.694;13.294;2023-07-30T08:38:22;20.90;99.90
18577;DHT22;9418;52.694;13.294;2023-07-30T08:40:48;20.90;99.90
18577;DHT22;9418;52.694;13.294;2023-07-30T08:43:15;20.80;99.90
18577;DHT22;9418;52.694;13.294;2023-07-30T08:45:42;20.80;99.90
18577;DHT22;9418;52.694;13.294;2023-07-30T08:48:10;20.90;99.90
18577;DHT22;9418;52.694;13.294;2023-07-30T08:50:37;21.20;99.90
18577;DHT22;9418;52.694;13.294;2023-07-30T08:53:04;21.40;99.90
18577;DHT22;9418;52.694;13.294;2023-07-30T08:55:33;21.50;99.90
18577;DHT22;9418;52.694;13.294;2023-07-30T08:58:01;21.50;99.90
18577;DHT22;9418;52.694;13.294;2023-07-30T09:00:31;21.50;99.90
18577;DHT22;9418;52.694;13.294;2023-07-30T09:03:00;21.30;99.90
18577;DHT22;9418;52.694;13.294;2023-07-30T09:05:30;21.20;99.90
18577;DHT22;9418;52.694;13.294;2023-07-30T09:07:58;21.10;99.90
18577;DHT22;9418;52.694;13.294;2023-07-30T09:10:26;20.90;99.90
18577;DHT22;9418;52.694;13.294;2023-07-30T09:12:53;20.70;99.90
18577;DHT22;9418;52.694;13.294;2023-07-30T09:15:29;20.60;99.90
18577;DHT22;9418;52.694;13.294;2023-07-30T09:17:55;20.50;99.90
18577;DHT22;9418;52.694;13.294;2023-07-30T09:20:22;20.50;99.90
18577;DHT22;9418;52.694;13.294;2023-07-30T09:22:50;20.90;99.90
18577;DHT22;9418;52.694;13.294;2023-07-30T09:25:18;21.20;99.90
18577;DHT22;9418;52.694;13.294;2023-07-30T09:27:48;21.30;99.90
18577;DHT22;9418;52.694;13.294;2023-07-30T09:30:14;21.40;99.90
18577;DHT22;9418;52.694;13.294;2023-07-30T09:32:51;21.60;99.90
18577;DHT22;9418;52.694;13.294;2023-07-30T09:35:18;21.80;99.90
18577;DHT22;9418;52.694;13.294;2023-07-30T09:37:45;21.90;21.50
18577;DHT22;9418;52.694;13.294;2023-07-30T09:40:14;21.60;30.90
18577;DHT22;9418;52.694;13.294;2023-07-30T09:42:43;21.50;25.50
18577;DHT22;9418;52.694;13.294;2023-07-30T09:45:17;21.70;99.90
18577;DHT22;9418;52.694;13.294;2023-07-30T09:47:46;22.20;34.50
18577;DHT22;9418;52.694;13.294;2023-07-30T09:50:14;22.50;53.50
18577;DHT22;9418;52.694;13.294;2023-07-30T09:52:41;23.00;47.30
18577;DHT22;9418;52.694;13.294;2023-07-30T09:55:08;23.50;64.70
18577;DHT22;9418;52.694;13.294;2023-07-30T09:57:36;23.70;99.60
18577;DHT22;9418;52.694;13.294;2023-07-30T10:00:02;23.80;99.90
18577;DHT22;9418;52.694;13.294;2023-07-30T10:02:29;23.80;99.90
18577;DHT22;9418;52.694;13.294;2023-07-30T10:04:57;23.70;99.90
18577;DHT22;9418;52.694;13.294;2023-07-30T10:07:26;23.70;99.90
18577;DHT22;9418;52.694;13.294;2023-07-30T10:09:58;23.80;99.90
18577;DHT22;9418;52.694;13.294;2023-07-30T10:12:31;23.80;99.90
18577;DHT22;9418;52.694;13.294;2023-07-30T10:15:00;23.70;99.90
18577;DHT22;9418;52.694;13.294;2023-07-30T10:17:27;23.80;99.90
18577;DHT22;9418;52.694;13.294;2023-07-30T10:19:54;23.90;99.90
18577;DHT22;9418;52.694;13.294;2023-07-30T10:22:23;24.10;99.90
18577;DHT22;9418;52.694;13.294;2023-07-30T10:24:56;23.60;99.90
18577;DHT22;9418;52.694;13.294;2023-07-30T10:27:24;23.20;99.90
18577;DHT22;9418;52.694;13.294;2023-07-30T10:30:10;23.00;99.90
18577;DHT22;9418;52.694;13.294;2023-07-30T10:32:40;23.40;95.80
18577;DHT22;9418;52.694;13.294;2023-07-30T10:35:07;24.00;99.00
18577;DHT22;9418;52.694;13.294;2023-07-30T10:37:33;24.50;99.90
18577;DHT22;9418;52.694;13.294;2023-07-30T10:40:00;24.80;99.90
18577;DHT22;9418;52.694;13.294;2023-07-30T10:42:33;24.60;99.90
18577;DHT22;9418;52.694;13.294;2023-07-30T10:45:00;24.40;99.90
18577;DHT22;9418;52.694;13.294;2023-07-30T10:47:28;24.20;99.90
18577;DHT22;9418;52.694;13.294;2023-07-30T10:49:54;24.90;99.90
18577;DHT22;9418;52.694;13.294;2023-07-30T10:52:27;26.00;99.90
18577;DHT22;9418;52.694;13.294;2023-07-30T10:54:59;26.50;99.90
18577;DHT22;9418;52.694;13.294;2023-07-30T10:57:30;25.80;99.90
18577;DHT22;9418;52.694;13.294;2023-07-30T10:59:57;25.00;99.90
18577;DHT22;9418;52.694;13.294;2023-07-30T11:02:23;25.90;99.90
18577;DHT22;9418;52.694;13.294;2023-07-30T11:04:51;26.20;99.90
18577;DHT22;9418;52.694;13.294;2023-07-30T11:07:18;26.90;99.90
18577;DHT22;9418;52.694;13.294;2023-07-30T11:09:44;26.10;99.90
18577;DHT22;9418;52.694;13.294;2023-07-30T11:12:11;25.30;99.90
18577;DHT22;9418;52.694;13.294;2023-07-30T11:14:37;25.60;99.90
18577;DHT22;9418;52.694;13.294;2023-07-30T11:17:04;25.70;99.90
18577;DHT22;9418;52.694;13.294;2023-07-30T11:19:30;25.80;99.90
18577;DHT22;9418;52.694;13.294;2023-07-30T11:22:00;25.50;99.90
18577;DHT22;9418;52.694;13.294;2023-07-30T11:24:34;25.10;99.90
18577;DHT22;9418;52.694;13.294;2023-07-30T11:27:01;24.60;99.90
18577;DHT22;9418;52.694;13.294;2023-07-30T11:29:28;24.20;99.90
18577;DHT22;9418;52.694;13.294;2023-07-30T11:31:57;24.30;99.90
18577;DHT22;9418;52.694;13.294;2023-07-30T11:34:24;24.30;99.90
18577;DHT22;9418;52.694;13.294;2023-07-30T11:36:52;24.60;99.90
18577;DHT22;9418;52.694;13.294;2023-07-30T11:39:21;24.40;99.90
18577;DHT22;9418;52.694;13.294;2023-07-30T11:41:48;24.00;99.90
18577;DHT22;9418;52.694;13.294;2023-07-30T11:44:29;23.80;99.90
18577;DHT22;9418;52.694;13.294;2023-07-30T11:46:56;23.80;99.90
18577;DHT22;9418;52.694;13.294;2023-07-30T11:49:22;24.30;99.90
18577;DHT22;9418;52.694;13.294;2023-07-30T11:51:49;24.90;99.90
18577;DHT22;9418;52.694;13.294;2023-07-30T11:54:22;25.70;99.90
18577;DHT22;9418;52.694;13.294;2023-07-30T11:56:54;26.50;99.90
18577;DHT22;9418;52.694;13.294;2023-07-30T11:59:21;26.60;99.90
18577;DHT22;9418;52.694;13.294;2023-07-30T12:01:48;26.50;99.90
18577;DHT22;9418;52.694;13.294;2023-07-30T12:04:14;25.80;99.90
18577;DHT22;9418;52.694;13.294;2023-07-30T12:06:44;25.70;99.90
18577;DHT22;9418;52.694;13.294;2023-07-30T12:09:11;25.00;99.90
18577;DHT22;9418;52.694;13.294;2023-07-30T12:11:46;24.90;99.90
18577;DHT22;9418;52.694;13.294;2023-07-30T12:14:13;24.80;99.90
18577;DHT22;9418;52.694;13.294;2023-07-30T12:16:39;24.90;99.90
18577;DHT22;9418;52.694;13.294;2023-07-30T12:19:06;24.90;99.90
18577;DHT22;9418;52.694;13.294;2023-07-30T12:21:32;24.60;99.90
18577;DHT22;9418;52.694;13.294;2023-07-30T12:23:59;24.80;99.90
18577;DHT22;9418;52.694;13.294;2023-07-30T12:26:25;24.90;99.90
18577;DHT22;9418;52.694;13.294;2023-07-30T12:28:53;24.90;99.90
18577;DHT22;9418;52.694;13.294;2023-07-30T12:31:20;24.70;99.90
18577;DHT22;9418;52.694;13.294;2023-07-30T12:33:45;24.60;99.90
18577;DHT22;9418;52.694;13.294;2023-07-30T12:36:12;24.20;99.90
18577;DHT22;9418;52.694;13.294;2023-07-30T12:38:39;24.20;99.90
18577;DHT22;9418;52.694;13.294;2023-07-30T12:41:05;24.30;99.90
18577;DHT22;9418;52.694;13.294;2023-07-30T12:43:32;24.40;99.90
18577;DHT22;9418;52.694;13.294;2023-07-30T12:46:00;24.30;99.90
18577;DHT22;9418;52.694;13.294;2023-07-30T12:48:26;24.40;99.90
18577;DHT22;9418;52.694;13.294;2023-07-30T12:50:53;24.40;99.90
18577;DHT22;9418;52.694;13.294;2023-07-30T12:53:19;24.30;99.90
18577;DHT22;9418;52.694;13.294;2023-07-30T12:55:46;24.20;99.90
18577;DHT22;9418;52.694;13.294;2023-07-30T12:58:13;24.10;99.90
18577;DHT22;9418;52.694;13.294;2023-07-30T13:00:39;24.10;99.90
18577;DHT22;9418;52.694;13.294;2023-07-30T13:03:07;24.10;99.90
18577;DHT22;9418;52.694;13.294;2023-07-30T13:05:34;24.00;99.90
18577;DHT22;9418;52.694;13.294;2023-07-30T13:08:01;23.90;99.90
18577;DHT22;9418;52.694;13.294;2023-07-30T13:10:27;23.70;99.90
18577;DHT22;9418;52.694;13.294;2023-07-30T13:12:54;23.60;99.90
18577;DHT22;9418;52.694;13.294;2023-07-30T13:15:20;23.50;99.90
18577;DHT22;9418;52.694;13.294;2023-07-30T13:17:47;23.50;99.90
18577;DHT22;9418;52.694;13.294;2023-07-30T13:20:15;23.50;99.90
18577;DHT22;9418;52.694;13.294;2023-07-30T13:22:41;23.60;99.90
18577;DHT22;9418;52.694;13.294;2023-07-30T13:25:08;23.50;99.90
18577;DHT22;9418;52.694;13.294;2023-07-30T13:27:34;23.50;99.90
18577;DHT22;9418;52.694;13.294;2023-07-30T13:30:01;23.50;99.90
18577;DHT22;9418;52.694;13.294;2023-07-30T13:32:28;23.30;99.90
18577;DHT22;9418;52.694;13.294;2023-07-30T13:34:54;23.30;99.90
18577;DHT22;9418;52.694;13.294;2023-07-30T13:37:22;23.30;99.90
18577;DHT22;9418;52.694;13.294;2023-07-30T13:39:48;23.30;99.90
18577;DHT22;9418;52.694;13.294;2023-07-30T13:42:15;23.20;99.90
18577;DHT22;9418;52.694;13.294;2023-07-30T13:44:41;23.20;99.90
18577;DHT22;9418;52.694;13.294;2023-07-30T13:47:08;23.20;99.90
18577;DHT22;9418;52.694;13.294;2023-07-30T13:49:35;23.20;99.90
18577;DHT22;9418;52.694;13.294;2023-07-30T13:52:02;23.30;99.90
18577;DHT22;9418;52.694;13.294;2023-07-30T13:54:29;23.30;99.90
18577;DHT22;9418;52.694;13.294;2023-07-30T13:56:56;23.30;99.90
18577;DHT22;9418;52.694;13.294;2023-07-30T13:59:22;23.40;99.90
18577;DHT22;9418;52.694;13.294;2023-07-30T14:01:49;23.30;99.90
18577;DHT22;9418;52.694;13.294;2023-07-30T14:04:16;23.30;99.90
18577;DHT22;9418;52.694;13.294;2023-07-30T14:06:42;23.30;99.90
18577;DHT22;9418;52.694;13.294;2023-07-30T14:09:09;23.20;99.90
18577;DHT22;9418;52.694;13.294;2023-07-30T14:11:37;23.10;99.90
18577;DHT22;9418;52.694;13.294;2023-07-30T14:14:06;23.00;99.90
18577;DHT22;9418;52.694;13.294;2023-07-30T14:16:33;22.90;99.90
18577;DHT22;9418;52.694;13.294;2023-07-30T14:18:59;22.90;99.90
18577;DHT22;9418;52.694;13.294;2023-07-30T14:21:26;22.90;99.90
18577;DHT22;9418;52.694;13.294;2023-07-30T14:23:52;22.80;99.90
18577;DHT22;9418;52.694;13.294;2023-07-30T14:26:19;22.90;99.90
18577;DHT22;9418;52.694;13.294;2023-07-30T14:28:47;22.90;99.90
18577;DHT22;9418;52.694;13.294;2023-07-30T14:31:13;22.90;99.90
18577;DHT22;9418;52.694;13.294;2023-07-30T14:33:40;22.90;99.90
18577;DHT22;9418;52.694;13.294;2023-07-30T14:36:07;22.80;99.90
18577;DHT22;9418;52.694;13.294;2023-07-30T14:38:36;22.80;99.90
18577;DHT22;9418;52.694;13.294;2023-07-30T14:41:03;22.80;99.90
18577;DHT22;9418;52.694;13.294;2023-07-30T14:43:31;22.70;99.90
18577;DHT22;9418;52.694;13.294;2023-07-30T14:45:59;22.60;99.90
18577;DHT22;9418;52.694;13.294;2023-07-30T14:48:25;22.70;99.90
18577;DHT22;9418;52.694;13.294;2023-07-30T14:50:52;22.50;99.90
18577;DHT22;9418;52.694;13.294;2023-07-30T14:53:18;22.30;99.90
18577;DHT22;9418;52.694;13.294;2023-07-30T14:55:45;22.30;99.90
18577;DHT22;9418;52.694;13.294;2023-07-30T14:58:11;22.10;99.90
18577;DHT22;9418;52.694;13.294;2023-07-30T15:00:39;21.90;99.90
18577;DHT22;9418;52.694;13.294;2023-07-30T15:03:06;21.70;99.90
18577;DHT22;9418;52.694;13.294;2023-07-30T15:05:33;21.50;99.90
18577;DHT22;9418;52.694;13.294;2023-07-30T15:08:00;21.40;99.90
18577;DHT22;9418;52.694;13.294;2023-07-30T15:10:27;21.20;99.90
18577;DHT22;9418;52.694;13.294;2023-07-30T15:12:54;21.20;99.90
18577;DHT22;9418;52.694;13.294;2023-07-30T15:15:20;21.20;99.90
18577;DHT22;9418;52.694;13.294;2023-07-30T15:17:47;21.20;99.90
18577;DHT22;9418;52.694;13.294;2023-07-30T15:20:15;21.30;99.90
18577;DHT22;9418;52.694;13.294;2023-07-30T15:22:42;21.40;99.90
18577;DHT22;9418;52.694;13.294;2023-07-30T15:25:08;21.50;99.90
18577;DHT22;9418;52.694;13.294;2023-07-30T15:27:35;21.60;99.90
18577;DHT22;9418;52.694;13.294;2023-07-30T15:30:02;21.50;99.90